createdAt,value
2018-09-22T00:01:27.430Z,61.90
2018-09-22T00:05:35.574Z,62.00
2018-09-22T00:09:43.758Z,62.30
2018-09-22T00:13:51.909Z,62.70
2018-09-22T00:18:00.069Z,63.00
2018-09-22T00:22:08.211Z,63.20
2018-09-22T00:30:24.252Z,63.30
2018-09-22T00:34:32.392Z,63.80
2018-09-22T00:38:40.581Z,63.90
2018-09-22T00:42:48.724Z,64.30
2018-09-22T00:46:56.865Z,64.50
2018-09-22T00:55:13.846Z,65.40
2018-09-22T00:59:22.005Z,65.70
2018-09-22T01:03:30.156Z,65.90
2018-09-22T01:07:38.306Z,66.20
2018-09-22T01:11:52.224Z,66.50
2018-09-22T01:16:00.339Z,66.80
2018-09-22T01:20:08.460Z,67.20
2018-09-22T01:24:16.584Z,67.60
2018-09-22T01:28:24.691Z,68.70
2018-09-22T01:32:32.820Z,68.10
2018-09-22T01:36:41.624Z,68.50
2018-09-22T01:40:49.740Z,68.40
2018-09-22T01:44:57.881Z,68.60
2018-09-22T01:49:06.009Z,68.90
2018-09-22T01:53:14.164Z,69.10
2018-09-22T01:57:22.996Z,69.10
2018-09-22T02:01:31.108Z,69.10
2018-09-22T02:05:39.280Z,69.30
2018-09-22T02:09:47.422Z,69.50
2018-09-22T02:13:55.651Z,69.60
2018-09-22T02:18:03.788Z,69.90
2018-09-22T02:22:11.910Z,70.00
2018-09-22T02:26:20.101Z,69.90
2018-09-22T02:30:28.333Z,70.10
2018-09-22T02:34:36.499Z,70.40
2018-09-22T02:38:44.627Z,70.50
2018-09-22T02:42:52.781Z,70.80
2018-09-22T02:47:00.933Z,71.00
2018-09-22T02:51:09.125Z,71.10
2018-09-22T02:55:17.212Z,71.20
2018-09-22T02:59:25.346Z,71.40
2018-09-22T03:03:33.496Z,71.60
2018-09-22T03:07:41.658Z,72.00
2018-09-22T03:11:49.764Z,72.50
2018-09-22T03:15:57.896Z,72.90
2018-09-22T03:20:06.053Z,73.30
2018-09-22T03:24:14.168Z,73.50
2018-09-22T03:28:22.313Z,74.00
2018-09-22T03:32:30.420Z,74.40
2018-09-22T03:36:38.562Z,74.90
2018-09-22T03:40:46.724Z,75.20
2018-09-22T03:44:54.841Z,76.80
2018-09-22T03:49:02.985Z,77.20
2018-09-22T03:53:11.083Z,77.60
2018-09-22T03:57:19.233Z,78.00
2018-09-22T04:01:27.352Z,78.70
2018-09-22T04:05:35.483Z,79.00
2018-09-22T04:09:43.611Z,79.40
2018-09-22T04:13:51.719Z,79.80
2018-09-22T04:17:59.858Z,80.90
2018-09-22T04:22:08.012Z,80.40
2018-09-22T04:26:16.115Z,80.60
2018-09-22T04:30:24.233Z,81.70
2018-09-22T04:34:32.410Z,81.00
2018-09-22T04:38:40.524Z,81.20
2018-09-22T04:42:48.664Z,81.40
2018-09-22T04:46:56.781Z,81.60
2018-09-22T04:51:04.939Z,81.90
2018-09-22T04:55:13.132Z,82.20
2018-09-22T04:59:21.248Z,82.40
2018-09-22T05:03:29.391Z,82.60
2018-09-22T05:07:37.501Z,82.80
2018-09-22T05:11:45.633Z,83.10
2018-09-22T05:15:53.767Z,83.40
2018-09-22T05:20:01.895Z,83.90
2018-09-22T05:24:10.076Z,84.20
2018-09-22T05:28:18.501Z,84.40
2018-09-22T05:32:26.604Z,84.70
2018-09-22T05:36:34.746Z,85.00
2018-09-22T05:40:42.953Z,85.10
2018-09-22T05:44:51.133Z,85.40
2018-09-22T05:48:59.242Z,85.40
2018-09-22T05:53:07.352Z,85.50
2018-09-22T05:57:15.508Z,85.60
2018-09-22T06:01:23.640Z,85.90
2018-09-22T06:05:31.800Z,85.60
2018-09-22T06:09:39.948Z,85.20
2018-09-22T06:13:48.102Z,84.80
2018-09-22T06:17:56.331Z,84.00
2018-09-22T06:22:04.483Z,83.60
2018-09-22T06:26:12.630Z,81.80
2018-09-22T06:30:20.817Z,81.40
2018-09-22T06:34:28.956Z,80.90
2018-09-22T06:38:37.117Z,80.30
2018-09-22T06:42:45.269Z,79.40
2018-09-22T06:46:53.397Z,77.90
2018-09-22T06:51:01.577Z,77.30
2018-09-22T06:55:09.784Z,76.50
2018-09-22T06:59:17.938Z,75.80
2018-09-22T07:03:26.099Z,75.00
2018-09-22T07:07:34.304Z,74.40
2018-09-22T07:11:42.435Z,73.60
2018-09-22T07:15:50.552Z,73.30
2018-09-22T07:19:58.680Z,72.70
2018-09-22T07:24:06.795Z,72.30
2018-09-22T07:28:14.987Z,71.40
2018-09-22T07:32:23.135Z,70.90
2018-09-22T07:36:31.288Z,70.30
2018-09-22T07:40:39.427Z,69.90
2018-09-22T07:44:47.551Z,69.00
2018-09-22T07:48:55.679Z,67.40
2018-09-22T07:53:03.895Z,67.60
2018-09-22T07:57:12.061Z,67.80
2018-09-22T08:01:20.159Z,66.70
2018-09-22T08:05:28.344Z,66.40
2018-09-22T08:09:36.469Z,66.00
2018-09-22T08:13:44.668Z,65.40
2018-09-22T08:17:52.783Z,64.40
2018-09-22T08:22:00.963Z,62.10
2018-09-22T08:26:09.550Z,59.50
2018-09-22T08:30:17.664Z,59.20
2018-09-22T08:34:25.791Z,59.10
2018-09-22T08:38:33.930Z,59.20
2018-09-22T08:42:42.084Z,59.20
2018-09-22T08:46:50.260Z,59.60
2018-09-22T08:50:58.411Z,60.50
2018-09-22T08:55:06.664Z,61.20
2018-09-22T08:59:14.809Z,60.70
2018-09-22T09:03:22.944Z,62.60
2018-09-22T09:07:31.076Z,64.50
2018-09-22T09:11:39.220Z,65.20
2018-09-22T09:15:47.377Z,63.40
2018-09-22T09:19:55.496Z,63.40
2018-09-22T09:24:03.624Z,63.70
2018-09-22T09:28:11.763Z,62.20
2018-09-22T09:32:19.896Z,60.20
2018-09-22T09:36:28.132Z,58.90
2018-09-22T09:40:36.247Z,58.70
2018-09-22T09:44:44.380Z,58.50
2018-09-22T09:48:52.607Z,57.70
2018-09-22T09:53:00.733Z,57.30
2018-09-22T09:57:08.864Z,57.70
2018-09-22T10:01:17.042Z,57.40
2018-09-22T10:05:25.169Z,57.00
2018-09-22T10:09:33.324Z,55.70
2018-09-22T10:13:41.479Z,55.70
2018-09-22T10:17:49.610Z,54.00
2018-09-22T10:21:57.769Z,53.50
2018-09-22T10:26:05.940Z,54.00
2018-09-22T10:30:14.144Z,54.10
2018-09-22T10:34:22.362Z,53.20
2018-09-22T10:38:30.584Z,53.30
2018-09-22T10:42:38.731Z,52.60
2018-09-22T10:46:46.910Z,51.90
2018-09-22T10:50:55.072Z,52.30
2018-09-22T10:55:03.195Z,50.80
2018-09-22T10:59:11.349Z,50.50
2018-09-22T11:03:19.515Z,49.80
2018-09-22T11:07:27.641Z,48.90
2018-09-22T11:11:35.840Z,47.40
2018-09-22T11:15:44.037Z,46.10
2018-09-22T11:19:52.212Z,45.10
2018-09-22T11:24:00.419Z,43.40
2018-09-22T11:28:08.661Z,43.90
2018-09-22T11:32:16.890Z,43.70
2018-09-22T11:36:25.066Z,43.40
2018-09-22T11:40:33.228Z,43.10
2018-09-22T11:44:41.453Z,42.00
2018-09-22T11:48:49.635Z,42.20
2018-09-22T11:52:57.845Z,42.20
2018-09-22T11:57:06.018Z,42.70
2018-09-22T12:01:14.188Z,41.60
2018-09-22T12:05:22.365Z,41.50
2018-09-22T12:09:30.573Z,41.40
2018-09-22T12:13:38.797Z,40.10
2018-09-22T12:17:47.003Z,39.80
2018-09-22T12:21:55.160Z,39.40
2018-09-22T12:26:03.363Z,39.60
2018-09-22T12:30:11.557Z,40.50
2018-09-22T12:34:19.749Z,40.60
2018-09-22T12:38:27.936Z,40.70
2018-09-22T12:42:36.100Z,41.00
2018-09-22T12:46:44.261Z,40.60
2018-09-22T12:50:52.481Z,42.10
2018-09-22T12:55:00.686Z,41.60
2018-09-22T12:59:09.013Z,41.80
2018-09-22T13:03:17.272Z,41.10
2018-09-22T13:07:25.480Z,41.20
2018-09-22T13:11:33.673Z,41.70
2018-09-22T13:15:41.893Z,41.70
2018-09-22T13:19:50.097Z,41.90
2018-09-22T13:23:58.306Z,43.50
2018-09-22T13:28:06.557Z,43.10
2018-09-22T13:32:14.821Z,42.70
2018-09-22T13:36:23.046Z,44.40
2018-09-22T13:40:31.261Z,45.10
2018-09-22T13:44:39.452Z,42.90
2018-09-22T13:48:47.658Z,41.30
2018-09-22T13:52:55.851Z,42.20
2018-09-22T13:57:04.024Z,41.70
2018-09-22T14:01:12.297Z,42.20
2018-09-22T14:05:20.699Z,41.70
2018-09-22T14:09:28.890Z,41.60
2018-09-22T14:13:37.094Z,40.00
2018-09-22T14:17:45.284Z,40.60
2018-09-22T14:21:53.517Z,41.30
2018-09-22T14:26:01.716Z,40.90
2018-09-22T14:30:09.919Z,41.20
2018-09-22T14:34:18.160Z,41.90
2018-09-22T14:38:26.430Z,42.70
2018-09-22T14:42:34.641Z,45.20
2018-09-22T14:46:42.806Z,48.70
2018-09-22T14:50:51.037Z,52.40
2018-09-22T14:54:59.297Z,54.70
2018-09-22T14:59:07.486Z,56.90
2018-09-22T15:03:15.669Z,57.70
2018-09-22T15:07:23.842Z,58.00
2018-09-22T15:11:32.016Z,59.10
2018-09-22T15:15:40.185Z,60.00
2018-09-22T15:19:48.377Z,61.00
2018-09-22T15:23:56.618Z,61.30
2018-09-22T15:28:04.782Z,61.80
2018-09-22T15:32:13.024Z,62.60
2018-09-22T15:36:21.314Z,63.20
2018-09-22T15:40:29.475Z,63.60
2018-09-22T15:44:38.026Z,64.60
2018-09-22T15:48:46.210Z,65.50
2018-09-22T15:52:54.414Z,67.20
2018-09-22T15:57:02.574Z,69.10
2018-09-22T16:01:10.736Z,71.30
2018-09-22T16:05:18.934Z,72.80
2018-09-22T16:09:27.091Z,74.40
2018-09-22T16:13:35.250Z,75.20
2018-09-22T16:17:43.511Z,76.00
2018-09-22T16:21:51.735Z,76.90
2018-09-22T16:25:59.866Z,78.20
2018-09-22T16:30:08.388Z,78.90
2018-09-22T16:34:16.555Z,79.60
2018-09-22T16:38:25.583Z,80.20
2018-09-22T16:42:33.803Z,80.60
2018-09-22T16:46:41.987Z,81.00
2018-09-22T16:50:50.637Z,81.40
2018-09-22T16:59:07.001Z,82.30
2018-09-22T17:03:15.194Z,83.00
2018-09-22T17:07:23.463Z,84.10
2018-09-22T17:11:31.650Z,83.60
2018-09-22T17:15:39.813Z,83.70
2018-09-22T17:19:48.445Z,84.20
2018-09-22T17:23:56.674Z,84.30
2018-09-22T17:28:05.125Z,85.00
2018-09-22T17:32:13.310Z,85.50
2018-09-22T17:36:21.837Z,85.80
2018-09-22T17:40:30.001Z,86.00
2018-09-22T17:44:38.198Z,85.90
2018-09-22T17:48:47.473Z,86.40
2018-09-22T17:52:55.659Z,86.90
2018-09-22T17:57:03.884Z,88.00
2018-09-22T18:01:12.066Z,87.30
2018-09-22T18:05:20.277Z,88.00
2018-09-22T18:09:28.448Z,88.40
2018-09-22T18:13:36.701Z,88.30
2018-09-22T18:17:44.859Z,88.20
2018-09-22T18:21:53.017Z,88.50
2018-09-22T18:26:01.711Z,88.70
2018-09-22T18:30:09.874Z,88.60
2018-09-22T18:34:18.074Z,88.50
2018-09-22T18:38:26.220Z,88.70
2018-09-22T18:42:34.460Z,88.80
2018-09-22T18:46:42.665Z,88.90
2018-09-22T18:50:50.812Z,88.90
2018-09-22T18:54:59.693Z,88.90
2018-09-22T18:59:07.881Z,88.80
2018-09-22T19:03:16.040Z,89.10
2018-09-22T19:07:24.250Z,89.80
2018-09-22T19:15:44.252Z,90.20
2018-09-22T19:20:05.534Z,90.30
2018-09-22T19:24:16.887Z,90.30
2018-09-22T19:28:30.361Z,90.40
2018-09-22T19:32:43.329Z,90.50
2018-09-22T19:36:54.748Z,90.70
2018-09-22T19:41:08.592Z,91.00
2018-09-22T19:45:20.933Z,91.00
2018-09-22T19:49:34.225Z,91.20
2018-09-22T19:53:43.071Z,91.40
2018-09-22T19:57:51.270Z,91.50
2018-09-22T20:01:59.918Z,91.60
2018-09-22T20:06:08.276Z,91.70
2018-09-22T20:10:16.605Z,91.90
2018-09-22T20:14:24.840Z,92.00
2018-09-22T20:18:33.652Z,92.10
2018-09-22T20:22:42.139Z,92.10
2018-09-22T20:26:50.382Z,92.10
2018-09-22T20:30:58.753Z,92.20
2018-09-22T20:35:07.212Z,92.20
2018-09-22T20:39:15.420Z,92.30
2018-09-22T20:43:23.675Z,92.40
2018-09-22T20:47:32.684Z,92.40
2018-09-22T20:51:40.956Z,92.40
2018-09-22T20:55:49.181Z,92.50
2018-09-22T20:59:57.413Z,92.70
2018-09-22T21:04:06.076Z,92.70
2018-09-22T21:08:14.288Z,92.60
2018-09-22T21:12:22.440Z,92.30
2018-09-22T21:16:32.269Z,91.90
2018-09-22T21:20:40.608Z,91.80
2018-09-22T21:24:48.877Z,91.80
2018-09-22T21:28:57.037Z,91.60
2018-09-22T21:33:05.793Z,91.40
2018-09-22T21:37:14.094Z,91.40
2018-09-22T21:41:22.277Z,91.40
2018-09-22T21:45:30.936Z,91.60
2018-09-22T21:49:39.133Z,91.80
2018-09-22T21:53:47.294Z,91.80
2018-09-22T21:57:55.491Z,91.60
2018-09-22T22:02:03.639Z,91.60
2018-09-22T22:06:11.816Z,91.70
2018-09-22T22:10:20.039Z,91.70
2018-09-22T22:14:28.705Z,91.90
2018-09-22T22:18:37.234Z,92.10
2018-09-22T22:22:45.457Z,92.20
2018-09-22T22:26:53.625Z,92.30
2018-09-22T22:31:02.111Z,92.50
2018-09-22T22:35:10.391Z,92.50
2018-09-22T22:43:26.738Z,92.80
2018-09-22T22:47:35.400Z,92.80
2018-09-22T22:51:43.590Z,92.90
2018-09-22T22:55:51.782Z,93.10
2018-09-22T23:00:00.906Z,93.20
2018-09-22T23:04:09.169Z,93.30
2018-09-22T23:08:17.362Z,93.20
2018-09-22T23:12:25.541Z,93.20
2018-09-22T23:16:34.256Z,93.20
2018-09-22T23:20:42.465Z,93.40
2018-09-22T23:24:50.653Z,93.40
2018-09-22T23:28:59.006Z,93.30
2018-09-22T23:33:07.305Z,93.30
2018-09-22T23:37:15.518Z,93.30
2018-09-22T23:41:23.780Z,93.40
2018-09-22T23:45:32.578Z,93.10
2018-09-22T23:49:40.763Z,93.10
2018-09-22T23:53:48.952Z,92.90
2018-09-22T23:57:57.162Z,92.80
